createdAt,value
2022-09-04T06:25:47.687Z,2.30
2022-09-04T06:29:00.454Z,2.75
2022-09-04T06:45:13.884Z,2.78
2022-09-04T06:48:22.258Z,2.92
2022-09-04T06:51:07.845Z,2.95
2022-09-04T06:57:51.603Z,3.10
2022-09-04T07:00:25.425Z,2.78
2022-09-04T07:29:56.682Z,6.88
2022-09-04T07:32:50.128Z,5.88
2022-09-04T07:35:31.906Z,8.02
2022-09-04T08:21:26.503Z,12.57
2022-09-04T08:24:16.055Z,10.82
2022-09-04T08:27:05.465Z,10.52
2022-09-04T08:30:04.394Z,10.13
2022-09-04T08:32:59.898Z,9.80
2022-09-04T08:36:03.562Z,12.40
2022-09-04T08:38:38.081Z,10.45
2022-09-04T08:41:26.330Z,9.82
2022-09-04T08:44:30.076Z,10.13
2022-09-04T08:47:18.723Z,9.32
2022-09-04T08:50:10.154Z,9.48
2022-09-04T08:52:44.641Z,8.70
2022-09-04T08:55:18.971Z,9.07
2022-09-04T08:58:02.397Z,9.75
2022-09-04T09:00:55.995Z,7.72
2022-09-04T09:03:30.572Z,7.40
2022-09-04T09:06:26.156Z,7.73
2022-09-04T09:09:18.038Z,7.47
2022-09-04T09:12:06.132Z,8.98
2022-09-04T09:15:10.245Z,7.75
2022-09-04T09:18:10.253Z,7.63
2022-09-04T09:21:13.892Z,7.10
2022-09-04T09:24:02.223Z,8.35
2022-09-04T09:26:44.987Z,7.60
2022-09-04T09:29:34.265Z,6.07
2022-09-04T09:32:21.692Z,6.13
2022-09-04T09:35:25.828Z,5.15
2022-09-04T09:38:24.114Z,6.05
2022-09-04T09:41:10.600Z,7.88
2022-09-04T09:43:58.784Z,6.40
2022-09-04T09:46:54.531Z,5.35
2022-09-04T09:49:53.923Z,5.43
2022-09-04T09:52:57.630Z,6.88
2022-09-04T09:55:47.433Z,6.85
2022-09-04T09:58:44.735Z,7.50
2022-09-04T10:01:20.953Z,7.32
2022-09-04T10:04:32.498Z,6.53
2022-09-04T10:07:38.296Z,6.82
2022-09-04T10:10:41.607Z,7.30
2022-09-04T10:13:37.833Z,7.30
2022-09-04T10:16:24.845Z,8.70
2022-09-04T10:19:21.288Z,8.15
2022-09-04T10:22:24.967Z,7.80
2022-09-04T10:25:18.064Z,7.18
2022-09-04T10:28:10.070Z,7.65
2022-09-04T10:31:10.015Z,6.72
2022-09-04T10:33:58.599Z,6.97
2022-09-04T10:37:02.992Z,6.13
2022-09-04T10:40:22.128Z,6.55
2022-09-04T10:43:26.413Z,5.40
2022-09-04T10:46:29.599Z,5.63
2022-09-04T10:49:07.260Z,6.07
2022-09-04T10:52:05.999Z,5.30
2022-09-04T10:55:03.544Z,5.50
2022-09-04T10:57:49.447Z,4.78
2022-09-04T11:00:29.024Z,4.30
2022-09-04T11:03:33.494Z,4.30
2022-09-04T11:06:37.650Z,4.90
2022-09-04T11:09:39.987Z,5.30
2022-09-04T11:12:39.245Z,4.85
2022-09-04T11:15:36.950Z,5.05
2022-09-04T11:18:19.448Z,5.20
2022-09-04T11:21:23.684Z,5.10
2022-09-04T11:24:13.582Z,5.93
2022-09-04T11:27:17.404Z,4.50
2022-09-04T11:30:12.278Z,4.55
2022-09-04T11:33:04.443Z,4.00
2022-09-04T11:36:07.930Z,4.05
2022-09-04T11:38:44.876Z,4.40
2022-09-04T11:41:34.953Z,4.05
2022-09-04T11:44:32.083Z,4.85
2022-09-04T11:47:14.452Z,4.45
2022-09-04T11:50:02.635Z,3.60
2022-09-04T11:52:54.273Z,3.42
2022-09-04T11:55:40.278Z,3.80
2022-09-04T11:58:30.440Z,3.13
2022-09-04T12:01:10.442Z,3.17
2022-09-04T12:03:59.450Z,3.15
2022-09-04T12:07:05.990Z,2.90
2022-09-04T12:09:51.259Z,3.00
2022-09-04T12:12:57.713Z,3.60
2022-09-04T12:18:35.878Z,3.08
2022-09-04T12:21:26.401Z,3.15
2022-09-04T12:24:12.560Z,2.83
2022-09-04T12:26:51.652Z,2.67
2022-09-04T12:29:48.357Z,2.90
2022-09-04T12:32:44.403Z,3.30
2022-09-04T12:35:31.601Z,3.13
2022-09-04T12:38:06.343Z,4.60
2022-09-04T12:40:45.660Z,3.63
2022-09-04T12:43:43.311Z,3.60
2022-09-04T12:46:26.160Z,3.90
2022-09-04T12:49:26.367Z,4.45
2022-09-04T12:52:19.597Z,3.58
2022-09-04T12:55:12.989Z,3.70
2022-09-04T12:57:55.972Z,3.65
2022-09-04T13:00:40.836Z,3.00
2022-09-04T13:03:38.684Z,3.90
2022-09-04T13:06:18.962Z,4.20
2022-09-04T13:09:14.701Z,3.65
2022-09-04T13:12:04.065Z,4.18
2022-09-04T13:14:52.690Z,4.80
2022-09-04T13:17:33.576Z,4.55
2022-09-04T13:20:11.224Z,4.60
2022-09-04T13:23:15.058Z,3.72
2022-09-04T13:28:48.169Z,4.57
2022-09-04T13:31:38.540Z,4.22
2022-09-04T13:34:34.197Z,5.80
2022-09-04T13:37:24.508Z,6.00
2022-09-04T13:40:15.049Z,4.25
2022-09-04T13:42:58.138Z,4.47
2022-09-04T13:45:35.164Z,4.35
2022-09-04T13:48:14.621Z,4.25
2022-09-04T13:50:55.977Z,4.45
2022-09-04T13:53:36.385Z,4.53
2022-09-04T13:56:16.302Z,3.95
2022-09-04T13:58:51.711Z,3.63
2022-09-04T14:01:30.048Z,3.42
2022-09-04T14:04:08.894Z,3.33
2022-09-04T14:06:41.659Z,4.20
2022-09-04T14:09:17.337Z,4.07
2022-09-04T14:12:20.224Z,3.67
2022-09-04T14:15:08.113Z,3.30
2022-09-04T14:17:55.466Z,4.50
2022-09-04T14:21:01.418Z,3.90
2022-09-04T14:23:59.147Z,3.95
2022-09-04T14:29:21.503Z,4.07
2022-09-04T14:32:18.996Z,4.75
2022-09-04T14:35:02.741Z,3.50
2022-09-04T14:38:05.936Z,3.95
2022-09-04T14:40:46.626Z,4.10
2022-09-04T14:43:34.885Z,4.22
2022-09-04T14:46:28.760Z,4.32
2022-09-04T14:49:07.666Z,3.95
2022-09-04T14:51:46.445Z,3.72
2022-09-04T14:54:27.948Z,3.70
2022-09-04T14:57:22.092Z,3.53
2022-09-04T15:00:20.642Z,4.03
2022-09-04T15:03:08.094Z,3.30
2022-09-04T15:05:59.442Z,3.45
2022-09-04T15:08:39.895Z,3.17
2022-09-04T15:11:36.557Z,3.40
2022-09-04T15:14:24.545Z,3.03
2022-09-04T15:17:01.359Z,3.22
2022-09-04T15:19:51.690Z,3.67
2022-09-04T15:22:32.248Z,3.40
2022-09-04T15:25:10.425Z,3.70
2022-09-04T15:27:51.650Z,3.80
2022-09-04T15:30:30.361Z,3.40
2022-09-04T15:33:07.705Z,3.88
2022-09-04T15:35:41.851Z,4.03
2022-09-04T15:38:21.143Z,3.85
2022-09-04T15:41:16.210Z,3.50
2022-09-04T15:43:56.069Z,3.13
2022-09-04T15:46:33.695Z,3.60
2022-09-04T15:49:19.047Z,3.50
2022-09-04T15:55:07.848Z,3.22
2022-09-04T15:57:56.412Z,4.00
2022-09-04T16:00:32.123Z,3.10
2022-09-04T16:03:15.943Z,3.50
2022-09-04T16:05:52.090Z,3.40
2022-09-04T16:08:36.153Z,3.67
2022-09-04T16:11:17.219Z,3.30
2022-09-04T16:13:51.942Z,3.55
2022-09-04T16:16:30.611Z,3.65
2022-09-04T16:19:34.693Z,3.03
2022-09-04T16:22:19.017Z,3.63
2022-09-04T16:25:06.130Z,3.50
2022-09-04T16:27:49.678Z,3.38
2022-09-04T16:30:33.263Z,3.70
2022-09-04T16:33:20.503Z,3.35
2022-09-04T16:36:06.919Z,3.60
2022-09-04T16:39:04.782Z,3.30
2022-09-04T16:41:46.757Z,3.20
2022-09-04T16:44:25.631Z,3.78
2022-09-04T16:47:06.313Z,3.35
2022-09-04T16:49:47.502Z,3.20
2022-09-04T16:52:27.096Z,3.95
2022-09-04T16:55:15.548Z,3.55
2022-09-04T16:58:11.728Z,3.10
2022-09-04T17:01:09.093Z,3.50
2022-09-04T17:04:13.342Z,3.75
2022-09-04T17:07:00.479Z,3.58
2022-09-04T17:09:40.047Z,3.53
2022-09-04T17:12:25.362Z,3.67
2022-09-04T17:15:17.688Z,3.45
2022-09-04T17:17:52.061Z,3.53
2022-09-04T17:21:21.580Z,3.47
2022-09-04T17:28:54.302Z,3.47
2022-09-04T17:29:22.449Z,3.80
2022-09-04T17:29:46.781Z,3.45
2022-09-04T17:34:23.597Z,3.72
2022-09-04T17:40:42.243Z,3.40
2022-09-04T17:40:55.853Z,3.10
2022-09-04T17:42:20.604Z,3.25
2022-09-04T17:44:54.545Z,3.80
2022-09-04T17:47:33.543Z,3.50
2022-09-04T17:50:14.340Z,3.22
2022-09-04T17:53:03.490Z,3.22
2022-09-04T17:55:47.706Z,3.60
2022-09-04T17:58:27.947Z,3.42
2022-09-04T18:01:14.640Z,3.40
2022-09-04T18:04:21.263Z,3.28
2022-09-04T18:07:28.732Z,3.67
2022-09-04T18:10:34.469Z,3.00
2022-09-04T18:13:36.551Z,3.83
2022-09-04T18:16:34.765Z,3.20
2022-09-04T18:19:15.580Z,3.78
2022-09-04T18:22:26.113Z,3.33
2022-09-04T18:25:16.485Z,3.42
2022-09-04T18:28:06.434Z,3.50
2022-09-04T18:37:12.900Z,3.95
2022-09-04T18:37:22.865Z,3.58
2022-09-04T18:37:44.601Z,4.05
2022-09-04T18:40:17.004Z,3.45
2022-09-04T18:50:36.444Z,3.70
2022-09-04T18:50:48.580Z,3.55
2022-09-04T18:50:50.998Z,4.05
2022-09-04T18:52:07.443Z,3.78
2022-09-04T18:54:46.499Z,3.90
2022-09-04T18:57:34.125Z,3.58
2022-09-04T19:00:11.187Z,3.40
2022-09-04T19:03:01.368Z,3.70
2022-09-04T19:05:44.461Z,3.67
2022-09-04T19:08:27.106Z,4.03
2022-09-04T19:11:09.399Z,3.70
2022-09-04T19:14:10.584Z,3.30
2022-09-04T19:17:08.601Z,3.60
2022-09-04T19:20:00.437Z,3.65
2022-09-04T19:22:40.794Z,3.92
2022-09-04T19:25:37.285Z,4.05
2022-09-04T19:28:24.155Z,4.53
2022-09-04T19:31:04.545Z,3.95
2022-09-04T19:34:03.590Z,3.50
2022-09-04T19:36:55.363Z,3.75
2022-09-04T19:45:57.737Z,3.90
2022-09-04T19:46:11.718Z,3.60
2022-09-04T19:46:14.939Z,3.60
2022-09-04T19:50:14.735Z,3.90
2022-09-04T19:53:33.327Z,4.00
2022-09-04T19:55:24.452Z,3.53
2022-09-04T19:58:21.332Z,4.45
2022-09-04T20:01:00.439Z,4.00
2022-09-04T20:03:45.646Z,3.90
2022-09-04T20:06:26.913Z,4.03
2022-09-04T20:09:07.686Z,3.88
2022-09-04T20:11:48.022Z,3.75
2022-09-04T20:14:28.173Z,4.20
2022-09-04T20:17:01.408Z,4.25
2022-09-04T20:19:54.650Z,4.13
2022-09-04T20:22:47.421Z,3.80
2022-09-04T20:25:37.529Z,4.50
2022-09-04T20:28:44.259Z,3.95
2022-09-04T20:31:28.746Z,4.47
2022-09-04T20:34:28.712Z,3.85
2022-09-04T20:37:23.481Z,3.90
2022-09-04T20:40:27.514Z,4.07
2022-09-04T20:43:04.076Z,3.67
2022-09-04T20:49:35.293Z,4.13
2022-09-04T20:52:49.858Z,4.13
2022-09-04T20:52:53.165Z,4.18
2022-09-04T20:55:09.528Z,3.67
2022-09-04T21:03:09.465Z,4.22
2022-09-04T21:03:17.388Z,4.30
2022-09-04T21:04:17.133Z,4.20
2022-09-04T21:07:27.346Z,4.13
2022-09-04T21:10:16.674Z,4.28
2022-09-04T21:13:13.719Z,4.10
2022-09-04T21:15:49.249Z,4.05
2022-09-04T21:19:11.386Z,4.18
2022-09-04T21:21:42.700Z,4.35
2022-09-04T21:24:32.101Z,3.83
2022-09-04T21:27:21.869Z,4.15
2022-09-04T21:30:12.767Z,3.58
2022-09-04T21:33:27.718Z,4.13
2022-09-04T21:36:00.386Z,3.72
2022-09-04T21:39:20.362Z,4.15
2022-09-04T21:42:16.454Z,3.90
2022-09-04T21:45:16.380Z,4.40
2022-09-04T21:48:06.241Z,3.97
2022-09-04T21:51:28.709Z,4.13
2022-09-04T21:54:37.828Z,4.35
2022-09-04T22:02:28.229Z,3.90
2022-09-04T22:02:41.702Z,4.00
2022-09-04T22:03:58.366Z,3.88
2022-09-04T22:07:36.263Z,4.00
2022-09-04T22:13:30.722Z,3.85
2022-09-04T22:13:38.173Z,3.70
2022-09-04T22:16:06.161Z,3.60
2022-09-04T22:19:04.340Z,3.50
2022-09-04T22:21:52.411Z,3.83
2022-09-04T22:24:59.189Z,4.15
2022-09-04T22:28:07.973Z,3.90
2022-09-04T22:31:11.775Z,4.00
2022-09-04T22:34:16.535Z,3.88
2022-09-04T22:37:19.259Z,4.03
2022-09-04T22:40:08.042Z,3.78
2022-09-04T22:42:47.184Z,3.65
2022-09-04T22:45:35.587Z,4.53
2022-09-04T22:48:20.683Z,4.03
2022-09-04T22:51:12.321Z,4.63
2022-09-04T22:54:01.967Z,4.03
2022-09-04T22:56:42.476Z,4.68
2022-09-04T22:59:30.853Z,4.05
2022-09-04T23:02:48.141Z,4.10
2022-09-04T23:06:01.081Z,4.38
2022-09-04T23:13:43.307Z,4.13
2022-09-04T23:13:50.374Z,4.28
2022-09-04T23:15:21.206Z,4.07
2022-09-04T23:18:45.653Z,4.60
2022-09-04T23:26:39.390Z,4.35
2022-09-04T23:26:45.162Z,4.18
2022-09-04T23:27:42.347Z,4.07
2022-09-04T23:30:26.997Z,4.20
2022-09-04T23:33:27.341Z,4.07
2022-09-04T23:36:33.191Z,4.15
2022-09-04T23:39:37.217Z,4.70
2022-09-04T23:42:11.812Z,4.40
2022-09-04T23:45:07.682Z,4.10
2022-09-04T23:47:49.588Z,4.28
2022-09-04T23:50:52.462Z,4.28
2022-09-04T23:53:41.838Z,4.45
2022-09-04T23:56:37.356Z,4.78
2022-09-04T23:59:42.103Z,4.93
